createdAt,value
2022-10-21T00:00:13.044Z,16.60
2022-10-21T00:02:41.064Z,16.60
2022-10-21T00:05:09.534Z,16.40
2022-10-21T00:07:37.673Z,16.10
2022-10-21T00:10:06.707Z,15.80
2022-10-21T00:12:35.078Z,15.50
2022-10-21T00:15:06.166Z,15.30
2022-10-21T00:17:36.148Z,15.30
2022-10-21T00:20:04.810Z,15.30
2022-10-21T00:22:32.711Z,15.20
2022-10-21T00:25:00.696Z,15.20
2022-10-21T00:27:28.488Z,15.20
2022-10-21T00:29:56.313Z,15.20
2022-10-21T00:32:25.485Z,15.30
2022-10-21T00:34:53.330Z,15.30
2022-10-21T00:37:21.115Z,15.20
2022-10-21T00:39:49.008Z,15.20
2022-10-21T00:42:20.211Z,15.10
2022-10-21T00:45:14.612Z,15.20
2022-10-21T00:50:29.876Z,15.40
2022-10-21T00:52:59.392Z,15.40
2022-10-21T00:55:30.116Z,15.50
2022-10-21T00:57:58.179Z,15.40
2022-10-21T01:00:25.958Z,15.40
2022-10-21T01:02:55.306Z,15.40
2022-10-21T01:05:23.946Z,15.50
2022-10-21T01:07:52.323Z,15.50
2022-10-21T01:10:20.463Z,15.50
2022-10-21T01:12:58.631Z,15.50
2022-10-21T01:15:34.056Z,15.60
2022-10-21T01:18:09.014Z,15.60
2022-10-21T01:21:04.019Z,15.60
2022-10-21T01:24:15.722Z,15.70
2022-10-21T01:27:17.252Z,15.70
2022-10-21T01:30:30.385Z,15.80
2022-10-21T01:33:27.654Z,15.90
2022-10-21T01:36:02.783Z,16.00
2022-10-21T01:38:41.320Z,15.90
2022-10-21T01:41:14.555Z,15.80
2022-10-21T01:43:50.867Z,15.70
2022-10-21T01:46:24.469Z,15.50
2022-10-21T01:48:57.478Z,15.40
2022-10-21T01:51:27.732Z,15.40
2022-10-21T01:54:01.269Z,15.30
2022-10-21T01:56:30.554Z,15.40
2022-10-21T01:58:59.520Z,15.30
2022-10-21T02:01:29.022Z,15.30
2022-10-21T02:04:01.928Z,15.20
2022-10-21T02:06:29.836Z,15.10
2022-10-21T02:08:57.726Z,15.10
2022-10-21T02:11:26.215Z,15.00
2022-10-21T02:13:58.895Z,14.90
2022-10-21T02:16:32.724Z,14.90
2022-10-21T02:19:01.305Z,14.90
2022-10-21T02:21:32.535Z,14.90
2022-10-21T02:24:06.192Z,14.90
2022-10-21T02:26:34.267Z,15.00
2022-10-21T02:29:02.420Z,15.00
2022-10-21T02:31:54.715Z,15.10
2022-10-21T02:34:30.874Z,15.20
2022-10-21T02:37:09.053Z,15.30
2022-10-21T02:39:43.041Z,15.40
2022-10-21T02:42:14.280Z,15.40
2022-10-21T02:44:42.047Z,15.50
2022-10-21T02:49:44.990Z,15.40
2022-10-21T02:52:12.964Z,15.30
2022-10-21T02:54:40.853Z,15.30
2022-10-21T02:57:08.676Z,15.20
2022-10-21T02:59:36.490Z,15.20
2022-10-21T03:02:04.303Z,15.10
2022-10-21T03:04:33.424Z,15.00
2022-10-21T03:07:01.235Z,15.00
2022-10-21T03:09:29.007Z,14.90
2022-10-21T03:11:56.784Z,14.90
2022-10-21T03:14:24.614Z,15.00
2022-10-21T03:16:52.404Z,15.00
2022-10-21T03:19:20.154Z,14.90
2022-10-21T03:21:49.256Z,14.90
2022-10-21T03:24:27.979Z,15.00
2022-10-21T03:26:57.222Z,15.00
2022-10-21T03:29:25.047Z,15.10
2022-10-21T03:31:52.834Z,15.10
2022-10-21T03:34:20.686Z,15.20
2022-10-21T03:36:49.816Z,15.10
2022-10-21T03:39:17.654Z,15.20
2022-10-21T03:41:45.647Z,15.30
2022-10-21T03:44:13.552Z,15.40
2022-10-21T03:46:41.411Z,15.40
2022-10-21T03:49:18.419Z,15.30
2022-10-21T03:51:50.676Z,15.40
2022-10-21T03:54:19.192Z,15.40
2022-10-21T03:56:48.423Z,15.40
2022-10-21T03:59:16.457Z,15.50
2022-10-21T04:01:44.410Z,15.50
2022-10-21T04:04:12.337Z,15.50
2022-10-21T04:06:40.136Z,15.50
2022-10-21T04:09:09.288Z,15.60
2022-10-21T04:11:37.876Z,15.50
2022-10-21T04:14:06.051Z,15.40
2022-10-21T04:16:34.491Z,15.40
2022-10-21T04:19:02.631Z,15.40
2022-10-21T04:21:30.452Z,15.30
2022-10-21T04:23:58.629Z,15.30
2022-10-21T04:26:28.174Z,15.20
2022-10-21T04:28:56.221Z,15.10
2022-10-21T04:31:26.547Z,15.10
2022-10-21T04:33:57.910Z,15.00
2022-10-21T04:36:25.689Z,15.10
2022-10-21T04:38:53.498Z,15.10
2022-10-21T04:41:21.385Z,15.00
2022-10-21T04:43:50.548Z,15.00
2022-10-21T04:46:20.608Z,14.90
2022-10-21T04:48:48.588Z,14.90
2022-10-21T04:51:16.642Z,14.80
2022-10-21T04:53:44.425Z,14.70
2022-10-21T04:56:12.330Z,14.60
2022-10-21T04:58:40.144Z,14.60
2022-10-21T05:01:09.333Z,14.60
2022-10-21T05:03:37.134Z,14.50
2022-10-21T05:06:05.178Z,14.50
2022-10-21T05:08:33.101Z,14.40
2022-10-21T05:11:02.375Z,14.30
2022-10-21T05:13:30.741Z,14.30
2022-10-21T05:16:00.161Z,14.20
2022-10-21T05:18:29.963Z,14.10
2022-10-21T05:20:58.480Z,14.00
2022-10-21T05:23:27.133Z,13.90
2022-10-21T05:25:55.028Z,13.90
2022-10-21T05:28:23.410Z,13.80
2022-10-21T05:30:51.203Z,13.80
2022-10-21T05:33:18.983Z,13.80
2022-10-21T05:35:56.477Z,13.80
2022-10-21T05:38:24.368Z,13.80
2022-10-21T05:40:52.138Z,13.80
2022-10-21T05:43:19.908Z,13.80
2022-10-21T05:45:47.718Z,13.80
2022-10-21T05:48:18.129Z,13.80
2022-10-21T05:50:46.393Z,13.70
2022-10-21T05:53:15.717Z,13.70
2022-10-21T05:55:43.482Z,13.70
2022-10-21T05:58:11.265Z,13.70
2022-10-21T06:00:39.098Z,13.70
2022-10-21T06:03:06.886Z,13.70
2022-10-21T06:05:35.175Z,13.70
2022-10-21T06:08:02.947Z,13.70
2022-10-21T06:10:32.261Z,13.70
2022-10-21T06:13:00.014Z,13.80
2022-10-21T06:15:27.772Z,13.80
2022-10-21T06:17:55.575Z,13.80
2022-10-21T06:20:23.337Z,13.80
2022-10-21T06:22:51.105Z,13.80
2022-10-21T06:25:18.909Z,13.70
2022-10-21T06:27:48.091Z,13.70
2022-10-21T06:30:15.895Z,13.70
2022-10-21T06:32:43.661Z,13.60
2022-10-21T06:35:11.429Z,13.60
2022-10-21T06:37:39.555Z,13.60
2022-10-21T06:40:08.407Z,13.60
2022-10-21T06:42:36.199Z,13.60
2022-10-21T06:45:05.869Z,13.70
2022-10-21T06:47:33.683Z,13.70
2022-10-21T06:50:03.446Z,13.70
2022-10-21T06:52:31.730Z,13.70
2022-10-21T06:54:59.492Z,13.70
2022-10-21T06:57:27.685Z,13.70
2022-10-21T06:59:55.441Z,13.70
2022-10-21T07:02:25.041Z,13.80
2022-10-21T07:04:53.382Z,13.70
2022-10-21T07:07:21.244Z,13.80
2022-10-21T07:09:49.086Z,13.80
2022-10-21T07:12:17.665Z,13.80
2022-10-21T07:14:45.422Z,13.80
2022-10-21T07:17:13.195Z,13.80
2022-10-21T07:19:42.403Z,13.80
2022-10-21T07:22:10.237Z,13.90
2022-10-21T07:24:38.260Z,13.90
2022-10-21T07:27:06.048Z,13.90
2022-10-21T07:29:33.858Z,13.90
2022-10-21T07:32:01.729Z,13.90
2022-10-21T07:34:29.479Z,13.90
2022-10-21T07:36:58.695Z,13.90
2022-10-21T07:39:28.104Z,13.90
2022-10-21T07:41:58.410Z,13.90
2022-10-21T07:44:27.314Z,13.90
2022-10-21T07:46:55.574Z,14.00
2022-10-21T07:49:25.400Z,14.10
2022-10-21T07:51:54.204Z,14.30
2022-10-21T07:54:23.336Z,14.40
2022-10-21T07:56:53.107Z,14.50
2022-10-21T07:59:22.755Z,14.60
2022-10-21T08:01:52.451Z,14.50
2022-10-21T08:04:22.355Z,14.20
2022-10-21T08:06:50.622Z,14.00
2022-10-21T08:09:18.576Z,13.90
2022-10-21T08:11:48.077Z,14.00
2022-10-21T08:14:16.321Z,14.10
2022-10-21T08:16:44.087Z,14.20
2022-10-21T08:19:18.825Z,14.30
2022-10-21T08:21:46.607Z,14.40
2022-10-21T08:24:14.383Z,14.40
2022-10-21T08:26:42.172Z,14.30
2022-10-21T08:29:11.327Z,14.40
2022-10-21T08:31:40.249Z,14.40
2022-10-21T08:34:08.188Z,14.50
2022-10-21T08:36:36.003Z,14.50
2022-10-21T08:39:03.890Z,14.60
2022-10-21T08:41:51.892Z,14.50
2022-10-21T08:44:32.244Z,14.40
2022-10-21T08:47:06.540Z,14.40
2022-10-21T08:49:46.385Z,14.40
2022-10-21T08:52:17.053Z,14.70
2022-10-21T08:54:48.560Z,14.60
2022-10-21T08:57:16.513Z,14.70
2022-10-21T08:59:46.608Z,14.60
2022-10-21T09:02:32.160Z,14.50
2022-10-21T09:05:18.564Z,14.50
2022-10-21T09:07:56.318Z,14.60
2022-10-21T09:10:32.786Z,14.60
2022-10-21T09:13:08.059Z,14.70
2022-10-21T09:15:48.209Z,14.60
2022-10-21T09:18:26.852Z,14.60
2022-10-21T09:21:04.780Z,14.60
2022-10-21T09:23:41.287Z,14.60
2022-10-21T09:26:19.159Z,14.60
2022-10-21T09:28:48.553Z,14.60
2022-10-21T09:31:19.712Z,14.60
2022-10-21T09:33:53.235Z,14.70
2022-10-21T09:36:27.200Z,14.70
2022-10-21T09:38:59.167Z,14.80
2022-10-21T09:41:33.261Z,14.90
2022-10-21T09:44:01.043Z,14.90
2022-10-21T09:46:30.239Z,14.90
2022-10-21T09:51:47.092Z,14.80
2022-10-21T09:54:18.979Z,14.90
2022-10-21T09:56:53.088Z,14.90
2022-10-21T09:59:23.253Z,14.90
2022-10-21T10:01:52.861Z,15.10
2022-10-21T10:04:24.871Z,15.10
2022-10-21T10:06:52.912Z,15.20
2022-10-21T10:09:27.946Z,15.20
2022-10-21T10:11:57.676Z,15.20
2022-10-21T10:14:29.352Z,15.30
2022-10-21T10:16:59.804Z,15.30
2022-10-21T10:19:29.401Z,15.40
2022-10-21T10:22:13.955Z,15.40
2022-10-21T10:24:42.069Z,15.40
2022-10-21T10:27:15.141Z,15.20
2022-10-21T10:29:43.819Z,15.20
2022-10-21T10:32:16.694Z,15.30
2022-10-21T10:34:53.528Z,15.20
2022-10-21T10:37:23.807Z,15.10
2022-10-21T10:39:53.648Z,15.00
2022-10-21T10:42:24.828Z,15.00
2022-10-21T10:44:55.019Z,15.00
2022-10-21T10:47:28.181Z,14.90
2022-10-21T10:49:56.222Z,14.90
2022-10-21T10:52:25.518Z,14.90
2022-10-21T10:55:18.117Z,14.90
2022-10-21T10:58:06.081Z,15.00
2022-10-21T11:00:43.482Z,14.90
2022-10-21T11:03:17.904Z,15.00
2022-10-21T11:05:47.712Z,15.00
2022-10-21T11:08:17.383Z,15.10
2022-10-21T11:10:48.580Z,15.00
2022-10-21T11:13:18.744Z,15.10
2022-10-21T11:16:11.234Z,15.10
2022-10-21T11:18:49.648Z,15.10
2022-10-21T11:21:34.846Z,15.00
2022-10-21T11:24:17.763Z,15.00
2022-10-21T11:26:55.418Z,14.90
2022-10-21T11:29:35.647Z,15.00
2022-10-21T11:32:19.406Z,14.80
2022-10-21T11:35:00.320Z,14.80
2022-10-21T11:37:44.116Z,14.60
2022-10-21T11:40:20.647Z,14.60
2022-10-21T11:42:51.739Z,14.60
2022-10-21T11:45:35.360Z,14.60
2022-10-21T11:48:12.515Z,14.50
2022-10-21T11:50:51.237Z,14.50
2022-10-21T11:53:36.362Z,14.50
2022-10-21T11:56:13.229Z,14.50
2022-10-21T11:58:50.582Z,14.30
2022-10-21T12:01:34.697Z,14.40
2022-10-21T12:04:26.437Z,14.40
2022-10-21T12:07:11.426Z,14.40
2022-10-21T12:09:44.298Z,14.40
2022-10-21T12:12:14.178Z,14.50
2022-10-21T12:14:45.603Z,14.50
2022-10-21T12:17:17.109Z,14.60
2022-10-21T12:19:52.337Z,14.70
2022-10-21T12:22:23.238Z,14.80
2022-10-21T12:24:56.784Z,14.80
2022-10-21T12:27:30.712Z,14.90
2022-10-21T12:30:06.272Z,15.00
2022-10-21T12:32:42.127Z,15.10
2022-10-21T12:35:14.964Z,15.20
2022-10-21T12:38:00.677Z,15.30
2022-10-21T12:40:38.264Z,15.30
2022-10-21T12:43:07.643Z,15.40
2022-10-21T12:45:38.858Z,15.50
2022-10-21T12:48:08.772Z,15.50
2022-10-21T12:50:36.685Z,15.50
2022-10-21T12:53:23.472Z,15.40
2022-10-21T12:55:54.379Z,15.40
2022-10-21T12:58:33.002Z,15.50
2022-10-21T13:01:02.407Z,15.50
2022-10-21T13:03:51.036Z,15.40
2022-10-21T13:06:57.608Z,15.30
2022-10-21T13:09:39.387Z,15.20
2022-10-21T13:12:18.411Z,15.00
2022-10-21T13:14:47.602Z,14.80
2022-10-21T13:17:27.108Z,14.80
2022-10-21T13:19:56.157Z,14.70
2022-10-21T13:22:34.442Z,14.60
2022-10-21T13:25:21.650Z,14.60
2022-10-21T13:27:53.102Z,14.60
2022-10-21T13:30:29.018Z,14.50
2022-10-21T13:33:02.928Z,14.50
2022-10-21T13:35:36.687Z,14.50
2022-10-21T13:38:18.109Z,14.40
2022-10-21T13:40:50.484Z,14.40
2022-10-21T13:43:28.481Z,14.30
2022-10-21T13:46:04.420Z,14.20
2022-10-21T13:48:32.711Z,14.10
2022-10-21T13:51:11.919Z,14.10
2022-10-21T13:53:45.503Z,14.00
2022-10-21T13:56:22.379Z,14.00
2022-10-21T13:58:51.025Z,13.90
2022-10-21T14:01:21.940Z,13.90
2022-10-21T14:03:50.296Z,14.00
2022-10-21T14:06:26.094Z,14.10
2022-10-21T14:08:56.004Z,14.00
2022-10-21T14:11:28.586Z,14.00
2022-10-21T14:13:59.718Z,14.10
2022-10-21T14:16:34.160Z,14.20
2022-10-21T14:19:05.943Z,14.20
2022-10-21T14:21:38.508Z,14.20
2022-10-21T14:24:07.124Z,14.20
2022-10-21T14:26:38.393Z,14.10
2022-10-21T14:29:06.530Z,14.10
2022-10-21T14:31:34.436Z,14.20
2022-10-21T14:34:02.295Z,14.30
2022-10-21T14:36:31.859Z,14.50
2022-10-21T14:39:03.041Z,14.50
2022-10-21T14:41:35.239Z,14.40
2022-10-21T14:44:13.142Z,14.40
2022-10-21T14:46:43.721Z,14.40
2022-10-21T14:49:23.136Z,14.30
2022-10-21T14:51:51.748Z,14.30
2022-10-21T14:54:28.635Z,14.20
2022-10-21T14:56:57.842Z,14.20
2022-10-21T14:59:35.093Z,14.10
2022-10-21T15:02:03.836Z,14.20
2022-10-21T15:04:52.022Z,14.20
2022-10-21T15:07:28.844Z,14.20
2022-10-21T15:10:11.100Z,14.20
2022-10-21T15:12:43.008Z,14.20
2022-10-21T15:15:53.551Z,14.30
2022-10-21T15:18:24.193Z,14.20
2022-10-21T15:20:55.480Z,14.20
2022-10-21T15:23:26.786Z,14.20
2022-10-21T15:26:00.098Z,14.20
2022-10-21T15:28:31.770Z,14.20
2022-10-21T15:31:02.323Z,14.20
2022-10-21T15:33:30.410Z,14.10
2022-10-21T15:36:02.223Z,14.20
2022-10-21T15:38:29.995Z,14.20
2022-10-21T15:40:57.842Z,14.30
2022-10-21T15:43:25.602Z,14.20
2022-10-21T15:45:53.420Z,14.20
2022-10-21T15:48:23.123Z,14.30
2022-10-21T15:50:50.930Z,14.30
2022-10-21T15:53:18.710Z,14.20
2022-10-21T15:55:46.464Z,14.20
2022-10-21T15:58:14.582Z,14.20
2022-10-21T16:00:42.405Z,14.20
2022-10-21T16:03:10.203Z,14.30
2022-10-21T16:05:39.886Z,14.30
2022-10-21T16:08:07.630Z,14.30
2022-10-21T16:10:37.713Z,14.20
2022-10-21T16:13:05.545Z,14.10
2022-10-21T16:15:33.312Z,14.30
2022-10-21T16:18:01.602Z,14.40
2022-10-21T16:20:32.010Z,14.40
2022-10-21T16:23:03.083Z,14.60
2022-10-21T16:25:31.276Z,14.60
2022-10-21T16:27:59.325Z,14.60
2022-10-21T16:30:28.782Z,14.70
2022-10-21T16:32:57.229Z,14.60
2022-10-21T16:35:25.404Z,14.70
2022-10-21T16:37:53.521Z,14.60
2022-10-21T16:40:25.116Z,14.50
2022-10-21T16:42:53.558Z,14.60
2022-10-21T16:45:23.680Z,14.50
2022-10-21T16:47:56.451Z,14.40
2022-10-21T16:50:26.479Z,14.50
2022-10-21T16:52:54.222Z,14.40
2022-10-21T16:55:23.326Z,14.50
2022-10-21T16:57:51.133Z,14.60
2022-10-21T17:00:19.106Z,14.60
2022-10-21T17:02:50.275Z,14.60
2022-10-21T17:05:18.743Z,14.50
2022-10-21T17:07:46.499Z,14.80
2022-10-21T17:10:14.265Z,14.70
2022-10-21T17:12:44.026Z,14.70
2022-10-21T17:15:14.936Z,14.70
2022-10-21T17:17:42.878Z,14.60
2022-10-21T17:20:11.724Z,14.60
2022-10-21T17:22:39.504Z,14.60
2022-10-21T17:25:07.747Z,14.60
2022-10-21T17:27:35.515Z,14.50
2022-10-21T17:30:04.967Z,14.30
2022-10-21T17:32:32.903Z,14.10
2022-10-21T17:35:00.703Z,14.10
2022-10-21T17:37:28.522Z,14.00
2022-10-21T17:39:56.369Z,13.90
2022-10-21T17:42:24.211Z,13.70
2022-10-21T17:44:52.637Z,13.60
2022-10-21T17:47:21.732Z,13.40
2022-10-21T17:49:49.475Z,13.40
2022-10-21T17:52:17.263Z,13.30
2022-10-21T17:54:45.003Z,13.20
2022-10-21T17:57:12.767Z,13.20
2022-10-21T17:59:40.659Z,13.20
2022-10-21T18:02:09.337Z,13.20
2022-10-21T18:04:38.658Z,13.10
2022-10-21T18:07:09.366Z,13.10
2022-10-21T18:09:38.676Z,13.10
2022-10-21T18:12:09.367Z,13.10
2022-10-21T18:14:37.322Z,13.20
2022-10-21T18:17:05.235Z,13.30
2022-10-21T18:19:33.807Z,13.30
2022-10-21T18:22:03.040Z,13.30
2022-10-21T18:24:31.288Z,13.40
2022-10-21T18:26:59.127Z,13.40
2022-10-21T18:29:26.972Z,13.40
2022-10-21T18:31:56.334Z,13.40
2022-10-21T18:34:24.132Z,13.50
2022-10-21T18:39:26.216Z,13.60
2022-10-21T18:41:54.793Z,13.60
2022-10-21T18:44:22.575Z,13.60
2022-10-21T18:46:52.453Z,13.70
2022-10-21T18:49:23.014Z,13.70
2022-10-21T18:51:50.770Z,13.70
2022-10-21T18:54:18.556Z,13.60
2022-10-21T18:56:47.674Z,13.70
2022-10-21T18:59:15.416Z,13.60
2022-10-21T19:01:43.230Z,13.60
2022-10-21T19:04:11.105Z,13.50
2022-10-21T19:06:41.798Z,13.50
2022-10-21T19:09:12.920Z,13.50
2022-10-21T19:11:41.202Z,13.40
2022-10-21T19:14:13.781Z,13.40
2022-10-21T19:16:42.667Z,13.40
2022-10-21T19:19:10.732Z,13.40
2022-10-21T19:21:38.805Z,13.50
2022-10-21T19:24:07.031Z,13.60
2022-10-21T19:26:36.300Z,13.70
2022-10-21T19:29:06.863Z,13.80
2022-10-21T19:31:36.397Z,14.00
2022-10-21T19:34:06.547Z,14.00
2022-10-21T19:36:34.578Z,14.00
2022-10-21T19:39:02.437Z,14.00
2022-10-21T19:41:30.253Z,13.90
2022-10-21T19:43:59.043Z,13.90
2022-10-21T19:46:29.451Z,13.90
2022-10-21T19:48:58.950Z,13.90
2022-10-21T19:51:27.030Z,14.00
2022-10-21T19:53:55.699Z,14.00
2022-10-21T19:56:26.838Z,14.10
2022-10-21T19:58:56.178Z,14.00
2022-10-21T20:01:26.154Z,14.00
2022-10-21T20:03:55.584Z,14.00
2022-10-21T20:06:27.016Z,13.90
2022-10-21T20:08:55.508Z,13.90
2022-10-21T20:11:23.799Z,13.80
2022-10-21T20:13:52.042Z,13.80
2022-10-21T20:16:22.213Z,13.70
2022-10-21T20:18:50.063Z,13.70
2022-10-21T20:21:18.077Z,13.60
2022-10-21T20:23:47.347Z,13.60
2022-10-21T20:26:15.140Z,13.50
2022-10-21T20:28:43.366Z,13.40
2022-10-21T20:31:12.579Z,13.40
2022-10-21T20:33:42.264Z,13.40
2022-10-21T20:36:13.424Z,13.30
2022-10-21T20:38:41.536Z,13.20
2022-10-21T20:41:14.385Z,13.10
2022-10-21T20:43:42.745Z,13.10
2022-10-21T20:46:12.414Z,13.00
2022-10-21T20:48:41.739Z,13.00
2022-10-21T20:51:11.493Z,12.90
2022-10-21T20:53:40.125Z,12.90
2022-10-21T20:56:09.871Z,12.90
2022-10-21T20:58:39.280Z,12.80
2022-10-21T21:01:08.355Z,12.80
2022-10-21T21:03:37.947Z,12.80
2022-10-21T21:06:05.978Z,12.80
2022-10-21T21:08:34.962Z,12.80
2022-10-21T21:11:02.866Z,12.80
2022-10-21T21:13:32.922Z,12.80
2022-10-21T21:16:06.123Z,12.80
2022-10-21T21:18:34.184Z,12.80
2022-10-21T21:21:07.242Z,12.80
2022-10-21T21:23:35.733Z,12.80
2022-10-21T21:26:05.027Z,12.80
2022-10-21T21:28:36.387Z,12.80
2022-10-21T21:31:05.261Z,12.80
2022-10-21T21:33:33.728Z,12.70
2022-10-21T21:36:03.075Z,12.60
2022-10-21T21:38:31.340Z,12.50
2022-10-21T21:40:59.455Z,12.50
2022-10-21T21:43:28.018Z,12.50
2022-10-21T21:45:58.084Z,12.50
2022-10-21T21:48:26.589Z,12.40
2022-10-21T21:51:01.748Z,12.40
2022-10-21T21:53:29.628Z,12.40
2022-10-21T21:56:02.828Z,12.40
2022-10-21T21:58:31.052Z,12.30
2022-10-21T22:01:09.357Z,12.30
2022-10-21T22:03:37.292Z,12.30
2022-10-21T22:06:06.181Z,12.30
2022-10-21T22:08:34.390Z,12.30
2022-10-21T22:11:07.632Z,12.20
2022-10-21T22:13:35.470Z,12.20
2022-10-21T22:16:05.465Z,12.20
2022-10-21T22:18:33.275Z,12.20
2022-10-21T22:21:01.916Z,12.10
2022-10-21T22:23:29.731Z,12.10
2022-10-21T22:25:58.576Z,12.10
2022-10-21T22:28:26.933Z,12.10
2022-10-21T22:30:57.947Z,12.00
2022-10-21T22:33:27.691Z,12.00
2022-10-21T22:35:55.758Z,11.90
2022-10-21T22:38:23.813Z,11.90
2022-10-21T22:40:54.511Z,11.80
2022-10-21T22:43:22.808Z,11.80
2022-10-21T22:45:50.572Z,11.80
2022-10-21T22:48:18.591Z,11.80
2022-10-21T22:50:48.321Z,11.70
2022-10-21T22:53:16.859Z,11.70
2022-10-21T22:55:44.628Z,11.60
2022-10-21T22:58:16.358Z,11.60
2022-10-21T23:00:44.379Z,11.60
2022-10-21T23:03:12.239Z,11.60
2022-10-21T23:05:40.001Z,11.60
2022-10-21T23:08:09.157Z,11.60
2022-10-21T23:10:37.151Z,11.60
2022-10-21T23:13:05.937Z,11.60
2022-10-21T23:15:34.723Z,11.50
2022-10-21T23:18:02.976Z,11.50
2022-10-21T23:20:31.067Z,11.50
2022-10-21T23:22:58.936Z,11.50
2022-10-21T23:25:28.447Z,11.40
2022-10-21T23:27:56.673Z,11.40
2022-10-21T23:30:24.527Z,11.50
2022-10-21T23:32:52.393Z,11.40
2022-10-21T23:35:21.064Z,11.40
2022-10-21T23:37:48.884Z,11.40
2022-10-21T23:40:16.663Z,11.40
2022-10-21T23:42:45.823Z,11.40
2022-10-21T23:45:14.188Z,11.40
2022-10-21T23:47:42.376Z,11.40
2022-10-21T23:50:11.036Z,11.40
2022-10-21T23:52:39.411Z,11.40
2022-10-21T23:55:08.207Z,11.40
2022-10-21T23:57:36.556Z,11.40
